sensor_id;sensor_type;location;lat;lon;timestamp;P1;durP1;ratioP1;P2;durP2;ratioP2
60588;SDS011;46421;48.610;9.334;2022-09-21T00:00:37;0.20;;;0.20;;
60588;SDS011;46421;48.610;9.334;2022-09-21T00:03:04;0.20;;;0.20;;
60588;SDS011;46421;48.610;9.334;2022-09-21T00:05:29;0.30;;;0.30;;
60588;SDS011;46421;48.610;9.334;2022-09-21T00:07:58;0.30;;;0.30;;
60588;SDS011;46421;48.610;9.334;2022-09-21T00:10:25;0.20;;;0.20;;
60588;SDS011;46421;48.610;9.334;2022-09-21T00:12:51;0.20;;;0.20;;
60588;SDS011;46421;48.610;9.334;2022-09-21T00:15:17;0.20;;;0.20;;
60588;SDS011;46421;48.610;9.334;2022-09-21T00:17:43;0.30;;;0.30;;
60588;SDS011;46421;48.610;9.334;2022-09-21T00:20:10;0.30;;;0.30;;
60588;SDS011;46421;48.610;9.334;2022-09-21T00:22:35;0.20;;;0.20;;
60588;SDS011;46421;48.610;9.334;2022-09-21T00:25:02;0.30;;;0.30;;
60588;SDS011;46421;48.610;9.334;2022-09-21T00:27:28;0.30;;;0.30;;
60588;SDS011;46421;48.610;9.334;2022-09-21T00:29:55;0.20;;;0.20;;
60588;SDS011;46421;48.610;9.334;2022-09-21T00:32:21;0.20;;;0.20;;
60588;SDS011;46421;48.610;9.334;2022-09-21T00:34:49;0.20;;;0.20;;
60588;SDS011;46421;48.610;9.334;2022-09-21T00:37:16;0.30;;;0.30;;
60588;SDS011;46421;48.610;9.334;2022-09-21T00:39:42;0.20;;;0.20;;
60588;SDS011;46421;48.610;9.334;2022-09-21T00:42:17;0.30;;;0.30;;
60588;SDS011;46421;48.610;9.334;2022-09-21T00:44:44;0.22;;;0.22;;
60588;SDS011;46421;48.610;9.334;2022-09-21T00:47:14;0.28;;;0.28;;
60588;SDS011;46421;48.610;9.334;2022-09-21T00:49:42;0.20;;;0.20;;
60588;SDS011;46421;48.610;9.334;2022-09-21T00:54:42;0.30;;;0.30;;
60588;SDS011;46421;48.610;9.334;2022-09-21T00:57:12;0.35;;;0.35;;
60588;SDS011;46421;48.610;9.334;2022-09-21T00:59:39;0.30;;;0.30;;
60588;SDS011;46421;48.610;9.334;2022-09-21T01:02:07;0.30;;;0.30;;
60588;SDS011;46421;48.610;9.334;2022-09-21T01:04:33;0.20;;;0.20;;
60588;SDS011;46421;48.610;9.334;2022-09-21T01:06:59;0.30;;;0.30;;
60588;SDS011;46421;48.610;9.334;2022-09-21T01:09:29;0.30;;;0.30;;
60588;SDS011;46421;48.610;9.334;2022-09-21T01:12:04;0.30;;;0.30;;
60588;SDS011;46421;48.610;9.334;2022-09-21T01:14:47;0.22;;;0.22;;
60588;SDS011;46421;48.610;9.334;2022-09-21T01:17:30;0.28;;;0.28;;
60588;SDS011;46421;48.610;9.334;2022-09-21T01:20:11;0.20;;;0.20;;
60588;SDS011;46421;48.610;9.334;2022-09-21T01:25:32;0.20;;;0.20;;
60588;SDS011;46421;48.610;9.334;2022-09-21T01:30:53;0.20;;;0.20;;
60588;SDS011;46421;48.610;9.334;2022-09-21T01:33:25;0.30;;;0.30;;
60588;SDS011;46421;48.610;9.334;2022-09-21T01:36:05;0.25;;;0.25;;
60588;SDS011;46421;48.610;9.334;2022-09-21T01:38:40;0.20;;;0.20;;
60588;SDS011;46421;48.610;9.334;2022-09-21T01:41:09;0.30;;;0.30;;
60588;SDS011;46421;48.610;9.334;2022-09-21T01:43:41;0.40;;;0.40;;
60588;SDS011;46421;48.610;9.334;2022-09-21T01:46:11;0.20;;;0.20;;
60588;SDS011;46421;48.610;9.334;2022-09-21T01:48:43;0.30;;;0.30;;
60588;SDS011;46421;48.610;9.334;2022-09-21T01:51:12;0.30;;;0.30;;
60588;SDS011;46421;48.610;9.334;2022-09-21T01:53:40;0.30;;;0.30;;
60588;SDS011;46421;48.610;9.334;2022-09-21T01:56:12;0.30;;;0.30;;
60588;SDS011;46421;48.610;9.334;2022-09-21T02:01:21;0.20;;;0.20;;
60588;SDS011;46421;48.610;9.334;2022-09-21T02:03:53;0.30;;;0.30;;
60588;SDS011;46421;48.610;9.334;2022-09-21T02:06:27;0.20;;;0.20;;
60588;SDS011;46421;48.610;9.334;2022-09-21T02:08:54;0.30;;;0.30;;
60588;SDS011;46421;48.610;9.334;2022-09-21T02:11:20;0.30;;;0.30;;
60588;SDS011;46421;48.610;9.334;2022-09-21T02:13:45;0.20;;;0.20;;
60588;SDS011;46421;48.610;9.334;2022-09-21T02:16:29;0.30;;;0.30;;
60588;SDS011;46421;48.610;9.334;2022-09-21T02:22:04;0.20;;;0.20;;
60588;SDS011;46421;48.610;9.334;2022-09-21T02:24:48;0.20;;;0.20;;
60588;SDS011;46421;48.610;9.334;2022-09-21T02:27:33;0.30;;;0.30;;
60588;SDS011;46421;48.610;9.334;2022-09-21T02:30:21;0.30;;;0.30;;
60588;SDS011;46421;48.610;9.334;2022-09-21T02:38:02;0.20;;;0.20;;
60588;SDS011;46421;48.610;9.334;2022-09-21T02:43:01;0.22;;;0.22;;
60588;SDS011;46421;48.610;9.334;2022-09-21T02:45:36;0.30;;;0.30;;
60588;SDS011;46421;48.610;9.334;2022-09-21T02:48:13;0.30;;;0.30;;
60588;SDS011;46421;48.610;9.334;2022-09-21T02:50:52;0.30;;;0.30;;
60588;SDS011;46421;48.610;9.334;2022-09-21T02:53:23;0.20;;;0.20;;
60588;SDS011;46421;48.610;9.334;2022-09-21T02:55:51;0.30;;;0.30;;
60588;SDS011;46421;48.610;9.334;2022-09-21T02:58:18;0.30;;;0.30;;
60588;SDS011;46421;48.610;9.334;2022-09-21T03:00:46;0.20;;;0.20;;
60588;SDS011;46421;48.610;9.334;2022-09-21T03:03:15;0.20;;;0.20;;
60588;SDS011;46421;48.610;9.334;2022-09-21T03:05:43;0.30;;;0.30;;
60588;SDS011;46421;48.610;9.334;2022-09-21T03:08:10;0.30;;;0.30;;
60588;SDS011;46421;48.610;9.334;2022-09-21T03:10:35;0.20;;;0.20;;
60588;SDS011;46421;48.610;9.334;2022-09-21T03:13:03;0.20;;;0.20;;
60588;SDS011;46421;48.610;9.334;2022-09-21T03:15:29;0.30;;;0.30;;
60588;SDS011;46421;48.610;9.334;2022-09-21T03:17:55;0.32;;;0.32;;
60588;SDS011;46421;48.610;9.334;2022-09-21T03:20:20;0.30;;;0.30;;
60588;SDS011;46421;48.610;9.334;2022-09-21T03:22:46;0.30;;;0.30;;
60588;SDS011;46421;48.610;9.334;2022-09-21T03:25:11;0.20;;;0.20;;
60588;SDS011;46421;48.610;9.334;2022-09-21T03:27:37;0.30;;;0.30;;
60588;SDS011;46421;48.610;9.334;2022-09-21T03:30:02;0.35;;;0.35;;
60588;SDS011;46421;48.610;9.334;2022-09-21T03:32:28;0.93;;;0.85;;
60588;SDS011;46421;48.610;9.334;2022-09-21T03:34:53;0.77;;;0.77;;
60588;SDS011;46421;48.610;9.334;2022-09-21T03:37:19;1.55;;;1.00;;
60588;SDS011;46421;48.610;9.334;2022-09-21T03:39:44;1.20;;;0.95;;
60588;SDS011;46421;48.610;9.334;2022-09-21T03:42:11;1.23;;;0.80;;
60588;SDS011;46421;48.610;9.334;2022-09-21T03:44:38;0.50;;;0.50;;
60588;SDS011;46421;48.610;9.334;2022-09-21T03:47:05;0.60;;;0.60;;
60588;SDS011;46421;48.610;9.334;2022-09-21T03:49:31;1.25;;;0.82;;
60588;SDS011;46421;48.610;9.334;2022-09-21T03:51:58;1.27;;;0.85;;
60588;SDS011;46421;48.610;9.334;2022-09-21T03:54:24;0.45;;;0.45;;
60588;SDS011;46421;48.610;9.334;2022-09-21T03:56:50;0.77;;;0.75;;
60588;SDS011;46421;48.610;9.334;2022-09-21T03:59:15;0.60;;;0.60;;
60588;SDS011;46421;48.610;9.334;2022-09-21T04:01:41;0.75;;;0.75;;
60588;SDS011;46421;48.610;9.334;2022-09-21T04:04:07;0.68;;;0.68;;
60588;SDS011;46421;48.610;9.334;2022-09-21T04:06:33;0.65;;;0.65;;
60588;SDS011;46421;48.610;9.334;2022-09-21T04:08:58;0.50;;;0.50;;
60588;SDS011;46421;48.610;9.334;2022-09-21T04:11:26;0.57;;;0.57;;
60588;SDS011;46421;48.610;9.334;2022-09-21T04:13:55;0.60;;;0.60;;
60588;SDS011;46421;48.610;9.334;2022-09-21T04:16:22;0.30;;;0.30;;
60588;SDS011;46421;48.610;9.334;2022-09-21T04:18:48;0.88;;;0.52;;
60588;SDS011;46421;48.610;9.334;2022-09-21T04:21:15;0.35;;;0.35;;
60588;SDS011;46421;48.610;9.334;2022-09-21T04:23:41;0.60;;;0.50;;
60588;SDS011;46421;48.610;9.334;2022-09-21T04:26:17;0.40;;;0.40;;
60588;SDS011;46421;48.610;9.334;2022-09-21T04:28:44;0.73;;;0.57;;
60588;SDS011;46421;48.610;9.334;2022-09-21T04:31:09;0.70;;;0.70;;
60588;SDS011;46421;48.610;9.334;2022-09-21T04:33:34;1.20;;;0.80;;
60588;SDS011;46421;48.610;9.334;2022-09-21T04:36:00;0.73;;;0.73;;
60588;SDS011;46421;48.610;9.334;2022-09-21T04:38:26;0.75;;;0.70;;
60588;SDS011;46421;48.610;9.334;2022-09-21T04:40:55;0.63;;;0.60;;
60588;SDS011;46421;48.610;9.334;2022-09-21T04:43:21;0.45;;;0.43;;
60588;SDS011;46421;48.610;9.334;2022-09-21T04:45:47;0.30;;;0.30;;
60588;SDS011;46421;48.610;9.334;2022-09-21T04:48:12;0.20;;;0.20;;
60588;SDS011;46421;48.610;9.334;2022-09-21T04:50:38;0.32;;;0.32;;
60588;SDS011;46421;48.610;9.334;2022-09-21T04:53:03;0.60;;;0.60;;
60588;SDS011;46421;48.610;9.334;2022-09-21T04:55:30;0.30;;;0.30;;
60588;SDS011;46421;48.610;9.334;2022-09-21T04:57:56;0.38;;;0.38;;
60588;SDS011;46421;48.610;9.334;2022-09-21T05:00:21;0.40;;;0.40;;
60588;SDS011;46421;48.610;9.334;2022-09-21T05:02:47;1.23;;;0.98;;
60588;SDS011;46421;48.610;9.334;2022-09-21T05:05:12;1.00;;;0.80;;
60588;SDS011;46421;48.610;9.334;2022-09-21T05:07:38;1.15;;;0.90;;
60588;SDS011;46421;48.610;9.334;2022-09-21T05:10:03;1.00;;;0.88;;
60588;SDS011;46421;48.610;9.334;2022-09-21T05:12:32;0.80;;;0.80;;
60588;SDS011;46421;48.610;9.334;2022-09-21T05:14:59;0.77;;;0.77;;
60588;SDS011;46421;48.610;9.334;2022-09-21T05:17:24;1.05;;;0.80;;
60588;SDS011;46421;48.610;9.334;2022-09-21T05:19:50;1.02;;;1.02;;
60588;SDS011;46421;48.610;9.334;2022-09-21T05:22:16;0.98;;;0.90;;
60588;SDS011;46421;48.610;9.334;2022-09-21T05:24:41;1.15;;;1.08;;
60588;SDS011;46421;48.610;9.334;2022-09-21T05:27:07;1.98;;;1.55;;
60588;SDS011;46421;48.610;9.334;2022-09-21T05:29:32;1.33;;;1.02;;
60588;SDS011;46421;48.610;9.334;2022-09-21T05:37:16;1.98;;;1.05;;
60588;SDS011;46421;48.610;9.334;2022-09-21T05:40:07;1.13;;;1.02;;
60588;SDS011;46421;48.610;9.334;2022-09-21T05:42:34;0.85;;;0.85;;
60588;SDS011;46421;48.610;9.334;2022-09-21T05:45:00;1.52;;;1.08;;
60588;SDS011;46421;48.610;9.334;2022-09-21T05:50:16;0.73;;;0.73;;
60588;SDS011;46421;48.610;9.334;2022-09-21T05:58:35;0.52;;;0.52;;
60588;SDS011;46421;48.610;9.334;2022-09-21T06:01:26;0.40;;;0.40;;
60588;SDS011;46421;48.610;9.334;2022-09-21T06:04:04;0.50;;;0.50;;
60588;SDS011;46421;48.610;9.334;2022-09-21T06:06:34;0.47;;;0.47;;
60588;SDS011;46421;48.610;9.334;2022-09-21T06:08:59;0.45;;;0.45;;
60588;SDS011;46421;48.610;9.334;2022-09-21T06:11:25;0.68;;;0.60;;
60588;SDS011;46421;48.610;9.334;2022-09-21T06:13:50;0.85;;;0.77;;
60588;SDS011;46421;48.610;9.334;2022-09-21T06:16:15;0.60;;;0.60;;
60588;SDS011;46421;48.610;9.334;2022-09-21T06:18:40;0.50;;;0.50;;
60588;SDS011;46421;48.610;9.334;2022-09-21T06:21:06;0.40;;;0.40;;
60588;SDS011;46421;48.610;9.334;2022-09-21T06:23:32;0.80;;;0.80;;
60588;SDS011;46421;48.610;9.334;2022-09-21T06:25:57;0.95;;;0.60;;
60588;SDS011;46421;48.610;9.334;2022-09-21T06:28:23;0.40;;;0.40;;
60588;SDS011;46421;48.610;9.334;2022-09-21T06:30:49;0.60;;;0.60;;
60588;SDS011;46421;48.610;9.334;2022-09-21T06:33:16;0.47;;;0.47;;
60588;SDS011;46421;48.610;9.334;2022-09-21T06:35:50;0.55;;;0.55;;
60588;SDS011;46421;48.610;9.334;2022-09-21T06:38:17;0.40;;;0.40;;
60588;SDS011;46421;48.610;9.334;2022-09-21T06:40:42;0.50;;;0.50;;
60588;SDS011;46421;48.610;9.334;2022-09-21T06:43:08;0.50;;;0.50;;
60588;SDS011;46421;48.610;9.334;2022-09-21T06:45:33;0.47;;;0.47;;
60588;SDS011;46421;48.610;9.334;2022-09-21T06:47:59;0.60;;;0.60;;
60588;SDS011;46421;48.610;9.334;2022-09-21T06:50:24;0.40;;;0.40;;
60588;SDS011;46421;48.610;9.334;2022-09-21T06:52:49;0.40;;;0.40;;
60588;SDS011;46421;48.610;9.334;2022-09-21T06:55:15;0.60;;;0.60;;
60588;SDS011;46421;48.610;9.334;2022-09-21T06:57:40;0.60;;;0.60;;
60588;SDS011;46421;48.610;9.334;2022-09-21T07:00:07;0.50;;;0.50;;
60588;SDS011;46421;48.610;9.334;2022-09-21T07:02:35;0.20;;;0.20;;
60588;SDS011;46421;48.610;9.334;2022-09-21T07:05:00;0.30;;;0.30;;
60588;SDS011;46421;48.610;9.334;2022-09-21T07:07:26;1.25;;;1.13;;
60588;SDS011;46421;48.610;9.334;2022-09-21T07:09:56;0.73;;;0.70;;
60588;SDS011;46421;48.610;9.334;2022-09-21T07:12:24;0.68;;;0.68;;
60588;SDS011;46421;48.610;9.334;2022-09-21T07:14:50;0.50;;;0.50;;
60588;SDS011;46421;48.610;9.334;2022-09-21T07:17:16;1.00;;;0.90;;
60588;SDS011;46421;48.610;9.334;2022-09-21T07:19:41;0.80;;;0.80;;
60588;SDS011;46421;48.610;9.334;2022-09-21T07:22:06;0.85;;;0.85;;
60588;SDS011;46421;48.610;9.334;2022-09-21T07:24:32;0.63;;;0.63;;
60588;SDS011;46421;48.610;9.334;2022-09-21T07:26:57;0.90;;;0.90;;
60588;SDS011;46421;48.610;9.334;2022-09-21T07:29:23;0.57;;;0.57;;
60588;SDS011;46421;48.610;9.334;2022-09-21T07:31:48;0.40;;;0.40;;
60588;SDS011;46421;48.610;9.334;2022-09-21T07:34:14;0.60;;;0.60;;
60588;SDS011;46421;48.610;9.334;2022-09-21T07:36:40;0.70;;;0.70;;
60588;SDS011;46421;48.610;9.334;2022-09-21T07:39:07;0.57;;;0.57;;
60588;SDS011;46421;48.610;9.334;2022-09-21T07:41:33;0.32;;;0.32;;
60588;SDS011;46421;48.610;9.334;2022-09-21T07:43:59;0.55;;;0.55;;
60588;SDS011;46421;48.610;9.334;2022-09-21T07:46:25;0.50;;;0.50;;
60588;SDS011;46421;48.610;9.334;2022-09-21T07:48:54;0.47;;;0.47;;
60588;SDS011;46421;48.610;9.334;2022-09-21T07:51:20;0.40;;;0.40;;
60588;SDS011;46421;48.610;9.334;2022-09-21T07:53:46;0.32;;;0.32;;
60588;SDS011;46421;48.610;9.334;2022-09-21T07:56:13;0.40;;;0.40;;
60588;SDS011;46421;48.610;9.334;2022-09-21T07:58:41;0.35;;;0.35;;
60588;SDS011;46421;48.610;9.334;2022-09-21T08:01:27;0.40;;;0.40;;
60588;SDS011;46421;48.610;9.334;2022-09-21T08:03:54;0.35;;;0.35;;
60588;SDS011;46421;48.610;9.334;2022-09-21T08:06:21;0.30;;;0.30;;
60588;SDS011;46421;48.610;9.334;2022-09-21T08:08:48;0.50;;;0.50;;
60588;SDS011;46421;48.610;9.334;2022-09-21T08:11:15;0.70;;;0.70;;
60588;SDS011;46421;48.610;9.334;2022-09-21T08:13:44;0.82;;;0.82;;
60588;SDS011;46421;48.610;9.334;2022-09-21T08:16:10;0.88;;;0.88;;
60588;SDS011;46421;48.610;9.334;2022-09-21T08:18:36;0.70;;;0.70;;
60588;SDS011;46421;48.610;9.334;2022-09-21T08:21:03;0.60;;;0.60;;
60588;SDS011;46421;48.610;9.334;2022-09-21T08:23:28;0.68;;;0.68;;
60588;SDS011;46421;48.610;9.334;2022-09-21T08:26:01;0.60;;;0.60;;
60588;SDS011;46421;48.610;9.334;2022-09-21T08:28:27;0.50;;;0.50;;
60588;SDS011;46421;48.610;9.334;2022-09-21T08:30:57;0.60;;;0.60;;
60588;SDS011;46421;48.610;9.334;2022-09-21T08:33:27;0.50;;;0.50;;
60588;SDS011;46421;48.610;9.334;2022-09-21T08:35:53;0.50;;;0.50;;
60588;SDS011;46421;48.610;9.334;2022-09-21T08:38:20;0.50;;;0.50;;
60588;SDS011;46421;48.610;9.334;2022-09-21T08:40:46;0.50;;;0.50;;
60588;SDS011;46421;48.610;9.334;2022-09-21T08:43:13;0.40;;;0.40;;
60588;SDS011;46421;48.610;9.334;2022-09-21T08:45:46;0.30;;;0.30;;
60588;SDS011;46421;48.610;9.334;2022-09-21T08:48:17;0.45;;;0.45;;
60588;SDS011;46421;48.610;9.334;2022-09-21T08:51:06;0.50;;;0.50;;
60588;SDS011;46421;48.610;9.334;2022-09-21T08:53:37;0.47;;;0.47;;
60588;SDS011;46421;48.610;9.334;2022-09-21T08:56:12;0.50;;;0.50;;
60588;SDS011;46421;48.610;9.334;2022-09-21T08:58:39;0.40;;;0.40;;
60588;SDS011;46421;48.610;9.334;2022-09-21T09:01:27;0.30;;;0.30;;
60588;SDS011;46421;48.610;9.334;2022-09-21T09:12:47;0.40;;;0.40;;
60588;SDS011;46421;48.610;9.334;2022-09-21T09:15:40;0.40;;;0.40;;
60588;SDS011;46421;48.610;9.334;2022-09-21T09:18:44;0.30;;;0.30;;
60588;SDS011;46421;48.610;9.334;2022-09-21T09:21:20;0.40;;;0.40;;
60588;SDS011;46421;48.610;9.334;2022-09-21T09:23:53;0.40;;;0.40;;
60588;SDS011;46421;48.610;9.334;2022-09-21T09:29:02;0.30;;;0.30;;
60588;SDS011;46421;48.610;9.334;2022-09-21T09:31:36;0.60;;;0.60;;
60588;SDS011;46421;48.610;9.334;2022-09-21T09:34:14;0.40;;;0.40;;
60588;SDS011;46421;48.610;9.334;2022-09-21T09:36:45;0.30;;;0.30;;
60588;SDS011;46421;48.610;9.334;2022-09-21T09:39:14;0.30;;;0.30;;
60588;SDS011;46421;48.610;9.334;2022-09-21T09:41:53;0.40;;;0.40;;
60588;SDS011;46421;48.610;9.334;2022-09-21T09:52:52;0.40;;;0.40;;
60588;SDS011;46421;48.610;9.334;2022-09-21T09:55:33;0.50;;;0.50;;
60588;SDS011;46421;48.610;9.334;2022-09-21T09:58:02;0.30;;;0.30;;
60588;SDS011;46421;48.610;9.334;2022-09-21T10:00:28;0.20;;;0.20;;
60588;SDS011;46421;48.610;9.334;2022-09-21T10:02:55;0.10;;;0.10;;
60588;SDS011;46421;48.610;9.334;2022-09-21T10:07:56;0.10;;;0.10;;
60588;SDS011;46421;48.610;9.334;2022-09-21T10:12:55;0.40;;;0.40;;
60588;SDS011;46421;48.610;9.334;2022-09-21T10:15:28;0.40;;;0.40;;
60588;SDS011;46421;48.610;9.334;2022-09-21T10:18:03;0.30;;;0.30;;
60588;SDS011;46421;48.610;9.334;2022-09-21T10:20:31;0.10;;;0.10;;
60588;SDS011;46421;48.610;9.334;2022-09-21T10:22:57;0.30;;;0.30;;
60588;SDS011;46421;48.610;9.334;2022-09-21T10:25:24;0.40;;;0.40;;
60588;SDS011;46421;48.610;9.334;2022-09-21T10:27:50;0.40;;;0.40;;
60588;SDS011;46421;48.610;9.334;2022-09-21T10:32:54;0.60;;;0.60;;
60588;SDS011;46421;48.610;9.334;2022-09-21T10:35:21;0.40;;;0.40;;
60588;SDS011;46421;48.610;9.334;2022-09-21T10:37:46;0.38;;;0.38;;
60588;SDS011;46421;48.610;9.334;2022-09-21T10:42:49;0.40;;;0.40;;
60588;SDS011;46421;48.610;9.334;2022-09-21T10:47:45;0.30;;;0.30;;
60588;SDS011;46421;48.610;9.334;2022-09-21T10:50:30;0.20;;;0.20;;
60588;SDS011;46421;48.610;9.334;2022-09-21T11:01:46;0.32;;;0.32;;
60588;SDS011;46421;48.610;9.334;2022-09-21T11:04:15;0.35;;;0.35;;
60588;SDS011;46421;48.610;9.334;2022-09-21T11:06:52;0.30;;;0.30;;
60588;SDS011;46421;48.610;9.334;2022-09-21T11:09:30;0.40;;;0.40;;
60588;SDS011;46421;48.610;9.334;2022-09-21T11:15:19;0.25;;;0.25;;
60588;SDS011;46421;48.610;9.334;2022-09-21T11:18:38;0.30;;;0.30;;
60588;SDS011;46421;48.610;9.334;2022-09-21T11:21:15;0.20;;;0.20;;
60588;SDS011;46421;48.610;9.334;2022-09-21T11:24:10;0.30;;;0.30;;
60588;SDS011;46421;48.610;9.334;2022-09-21T11:27:27;0.10;;;0.10;;
60588;SDS011;46421;48.610;9.334;2022-09-21T11:32:28;0.40;;;0.40;;
60588;SDS011;46421;48.610;9.334;2022-09-21T11:35:21;0.47;;;0.47;;
60588;SDS011;46421;48.610;9.334;2022-09-21T11:46:21;0.20;;;0.20;;
60588;SDS011;46421;48.610;9.334;2022-09-21T11:56:47;0.30;;;0.30;;
60588;SDS011;46421;48.610;9.334;2022-09-21T12:01:49;0.40;;;0.40;;
60588;SDS011;46421;48.610;9.334;2022-09-21T12:20:19;0.20;;;0.20;;
60588;SDS011;46421;48.610;9.334;2022-09-21T12:22:59;0.20;;;0.20;;
60588;SDS011;46421;48.610;9.334;2022-09-21T12:25:32;0.22;;;0.22;;
60588;SDS011;46421;48.610;9.334;2022-09-21T12:31:11;0.20;;;0.20;;
60588;SDS011;46421;48.610;9.334;2022-09-21T12:33:48;0.13;;;0.13;;
60588;SDS011;46421;48.610;9.334;2022-09-21T12:36:24;0.20;;;0.20;;
60588;SDS011;46421;48.610;9.334;2022-09-21T12:41:50;0.30;;;0.30;;
60588;SDS011;46421;48.610;9.334;2022-09-21T12:49:52;0.20;;;0.20;;
60588;SDS011;46421;48.610;9.334;2022-09-21T12:52:25;0.00;;;0.00;;
60588;SDS011;46421;48.610;9.334;2022-09-21T12:54:55;0.10;;;0.10;;
60588;SDS011;46421;48.610;9.334;2022-09-21T12:57:48;0.20;;;0.20;;
60588;SDS011;46421;48.610;9.334;2022-09-21T13:00:21;0.10;;;0.10;;
60588;SDS011;46421;48.610;9.334;2022-09-21T13:02:52;0.17;;;0.17;;
60588;SDS011;46421;48.610;9.334;2022-09-21T13:05:49;0.20;;;0.20;;
60588;SDS011;46421;48.610;9.334;2022-09-21T13:08:34;0.20;;;0.20;;
60588;SDS011;46421;48.610;9.334;2022-09-21T13:11:04;0.20;;;0.20;;
60588;SDS011;46421;48.610;9.334;2022-09-21T13:13:48;0.00;;;0.00;;
60588;SDS011;46421;48.610;9.334;2022-09-21T13:16:35;0.10;;;0.10;;
60588;SDS011;46421;48.610;9.334;2022-09-21T13:21:37;0.20;;;0.20;;
60588;SDS011;46421;48.610;9.334;2022-09-21T13:24:04;0.10;;;0.10;;
60588;SDS011;46421;48.610;9.334;2022-09-21T13:26:43;0.10;;;0.10;;
60588;SDS011;46421;48.610;9.334;2022-09-21T13:31:54;0.10;;;0.10;;
60588;SDS011;46421;48.610;9.334;2022-09-21T13:34:29;0.10;;;0.10;;
60588;SDS011;46421;48.610;9.334;2022-09-21T13:39:43;0.10;;;0.10;;
60588;SDS011;46421;48.610;9.334;2022-09-21T13:47:32;0.10;;;0.10;;
60588;SDS011;46421;48.610;9.334;2022-09-21T13:50:00;0.10;;;0.10;;
60588;SDS011;46421;48.610;9.334;2022-09-21T13:55:04;0.10;;;0.10;;
60588;SDS011;46421;48.610;9.334;2022-09-21T13:57:38;0.20;;;0.20;;
60588;SDS011;46421;48.610;9.334;2022-09-21T14:02:38;0.10;;;0.10;;
60588;SDS011;46421;48.610;9.334;2022-09-21T14:05:23;0.10;;;0.10;;
60588;SDS011;46421;48.610;9.334;2022-09-21T14:10:38;0.10;;;0.10;;
60588;SDS011;46421;48.610;9.334;2022-09-21T14:19:00;0.00;;;0.00;;
60588;SDS011;46421;48.610;9.334;2022-09-21T14:21:27;0.00;;;0.00;;
60588;SDS011;46421;48.610;9.334;2022-09-21T14:26:32;0.30;;;0.30;;
60588;SDS011;46421;48.610;9.334;2022-09-21T14:28:58;0.10;;;0.10;;
60588;SDS011;46421;48.610;9.334;2022-09-21T14:31:35;0.30;;;0.30;;
60588;SDS011;46421;48.610;9.334;2022-09-21T14:34:03;0.17;;;0.17;;
60588;SDS011;46421;48.610;9.334;2022-09-21T14:39:12;0.40;;;0.40;;
60588;SDS011;46421;48.610;9.334;2022-09-21T14:41:42;0.10;;;0.10;;
60588;SDS011;46421;48.610;9.334;2022-09-21T14:44:16;0.10;;;0.10;;
60588;SDS011;46421;48.610;9.334;2022-09-21T14:52:19;0.20;;;0.20;;
60588;SDS011;46421;48.610;9.334;2022-09-21T15:00:42;0.30;;;0.30;;
60588;SDS011;46421;48.610;9.334;2022-09-21T15:12:16;0.20;;;0.20;;
60588;SDS011;46421;48.610;9.334;2022-09-21T15:14:46;0.20;;;0.20;;
60588;SDS011;46421;48.610;9.334;2022-09-21T15:19:49;0.22;;;0.22;;
60588;SDS011;46421;48.610;9.334;2022-09-21T15:22:16;0.30;;;0.30;;
60588;SDS011;46421;48.610;9.334;2022-09-21T15:25:16;0.20;;;0.20;;
60588;SDS011;46421;48.610;9.334;2022-09-21T15:27:40;0.20;;;0.20;;
60588;SDS011;46421;48.610;9.334;2022-09-21T15:30:16;0.22;;;0.22;;
60588;SDS011;46421;48.610;9.334;2022-09-21T15:32:54;0.20;;;0.20;;
60588;SDS011;46421;48.610;9.334;2022-09-21T15:35:26;0.30;;;0.30;;
60588;SDS011;46421;48.610;9.334;2022-09-21T15:37:54;0.30;;;0.30;;
60588;SDS011;46421;48.610;9.334;2022-09-21T15:40:30;0.20;;;0.20;;
60588;SDS011;46421;48.610;9.334;2022-09-21T15:43:01;0.20;;;0.20;;
60588;SDS011;46421;48.610;9.334;2022-09-21T15:48:18;0.15;;;0.15;;
60588;SDS011;46421;48.610;9.334;2022-09-21T15:50:46;0.20;;;0.20;;
60588;SDS011;46421;48.610;9.334;2022-09-21T15:55:46;0.30;;;0.30;;
60588;SDS011;46421;48.610;9.334;2022-09-21T15:58:18;0.20;;;0.20;;
60588;SDS011;46421;48.610;9.334;2022-09-21T16:00:53;0.20;;;0.20;;
60588;SDS011;46421;48.610;9.334;2022-09-21T16:03:20;0.20;;;0.20;;
60588;SDS011;46421;48.610;9.334;2022-09-21T16:05:50;0.20;;;0.20;;
60588;SDS011;46421;48.610;9.334;2022-09-21T16:08:31;0.20;;;0.20;;
60588;SDS011;46421;48.610;9.334;2022-09-21T16:13:35;0.17;;;0.17;;
60588;SDS011;46421;48.610;9.334;2022-09-21T16:16:19;0.30;;;0.30;;
60588;SDS011;46421;48.610;9.334;2022-09-21T16:18:45;0.20;;;0.20;;
60588;SDS011;46421;48.610;9.334;2022-09-21T16:21:31;0.20;;;0.20;;
60588;SDS011;46421;48.610;9.334;2022-09-21T16:24:17;0.25;;;0.25;;
60588;SDS011;46421;48.610;9.334;2022-09-21T16:26:56;0.30;;;0.30;;
60588;SDS011;46421;48.610;9.334;2022-09-21T16:29:24;0.30;;;0.30;;
60588;SDS011;46421;48.610;9.334;2022-09-21T16:31:53;0.30;;;0.30;;
60588;SDS011;46421;48.610;9.334;2022-09-21T16:34:42;0.20;;;0.20;;
60588;SDS011;46421;48.610;9.334;2022-09-21T16:39:58;0.30;;;0.30;;
60588;SDS011;46421;48.610;9.334;2022-09-21T16:42:25;0.20;;;0.20;;
60588;SDS011;46421;48.610;9.334;2022-09-21T16:44:56;0.28;;;0.28;;
60588;SDS011;46421;48.610;9.334;2022-09-21T16:47:24;0.30;;;0.30;;
60588;SDS011;46421;48.610;9.334;2022-09-21T16:49:51;0.20;;;0.20;;
60588;SDS011;46421;48.610;9.334;2022-09-21T16:52:24;0.20;;;0.20;;
60588;SDS011;46421;48.610;9.334;2022-09-21T16:54:52;0.30;;;0.30;;
60588;SDS011;46421;48.610;9.334;2022-09-21T16:57:18;0.20;;;0.20;;
60588;SDS011;46421;48.610;9.334;2022-09-21T16:59:44;0.13;;;0.13;;
60588;SDS011;46421;48.610;9.334;2022-09-21T17:02:10;0.20;;;0.20;;
60588;SDS011;46421;48.610;9.334;2022-09-21T17:04:38;0.13;;;0.13;;
60588;SDS011;46421;48.610;9.334;2022-09-21T17:07:03;0.30;;;0.30;;
60588;SDS011;46421;48.610;9.334;2022-09-21T17:09:33;0.10;;;0.10;;
60588;SDS011;46421;48.610;9.334;2022-09-21T17:12:02;0.20;;;0.20;;
60588;SDS011;46421;48.610;9.334;2022-09-21T17:14:30;0.20;;;0.20;;
60588;SDS011;46421;48.610;9.334;2022-09-21T17:16:59;0.20;;;0.20;;
60588;SDS011;46421;48.610;9.334;2022-09-21T17:19:28;0.20;;;0.20;;
60588;SDS011;46421;48.610;9.334;2022-09-21T17:21:54;0.20;;;0.20;;
60588;SDS011;46421;48.610;9.334;2022-09-21T17:24:19;0.20;;;0.20;;
60588;SDS011;46421;48.610;9.334;2022-09-21T17:26:44;0.13;;;0.13;;
60588;SDS011;46421;48.610;9.334;2022-09-21T17:29:18;0.20;;;0.20;;
60588;SDS011;46421;48.610;9.334;2022-09-21T17:31:47;0.25;;;0.25;;
60588;SDS011;46421;48.610;9.334;2022-09-21T17:34:15;0.20;;;0.20;;
60588;SDS011;46421;48.610;9.334;2022-09-21T17:36:41;0.20;;;0.20;;
60588;SDS011;46421;48.610;9.334;2022-09-21T17:39:07;0.20;;;0.20;;
60588;SDS011;46421;48.610;9.334;2022-09-21T17:49:40;0.20;;;0.20;;
60588;SDS011;46421;48.610;9.334;2022-09-21T17:52:08;0.20;;;0.20;;
60588;SDS011;46421;48.610;9.334;2022-09-21T17:57:34;0.30;;;0.30;;
60588;SDS011;46421;48.610;9.334;2022-09-21T18:00:10;0.20;;;0.20;;
60588;SDS011;46421;48.610;9.334;2022-09-21T18:02:44;0.10;;;0.10;;
60588;SDS011;46421;48.610;9.334;2022-09-21T18:05:30;0.30;;;0.30;;
60588;SDS011;46421;48.610;9.334;2022-09-21T18:07:55;0.20;;;0.20;;
60588;SDS011;46421;48.610;9.334;2022-09-21T18:10:21;0.20;;;0.20;;
60588;SDS011;46421;48.610;9.334;2022-09-21T18:12:57;0.17;;;0.17;;
60588;SDS011;46421;48.610;9.334;2022-09-21T18:15:49;0.17;;;0.17;;
60588;SDS011;46421;48.610;9.334;2022-09-21T18:19:19;0.10;;;0.10;;
60588;SDS011;46421;48.610;9.334;2022-09-21T18:21:26;0.30;;;0.30;;
60588;SDS011;46421;48.610;9.334;2022-09-21T18:24:08;0.20;;;0.20;;
60588;SDS011;46421;48.610;9.334;2022-09-21T18:26:43;0.10;;;0.10;;
60588;SDS011;46421;48.610;9.334;2022-09-21T18:29:18;0.20;;;0.20;;
60588;SDS011;46421;48.610;9.334;2022-09-21T18:32:00;0.10;;;0.10;;
60588;SDS011;46421;48.610;9.334;2022-09-21T18:40:14;0.30;;;0.30;;